Time;durP1;ratioP1;P1;durP2;ratioP2;P2;SDS_P1;SDS_P2;PMS_P1;PMS_P2;Temp;Humidity;BMP_temperature;BMP_pressure;BME280_temperature;BME280_humidity;BME280_pressure;Samples;Min_cycle;Max_cycle;Signal;HPM_P1;HPM_P2
2023/08/11 04:22:33;;;;;;;20.02;10.60;;;;;;;13.60;100.00;100692.78;5089335;28;20171;-67
2023/08/11 04:24:59;;;;;;;21.45;10.25;;;;;;;13.53;100.00;100687.31;5097488;28;20036;-66
2023/08/11 04:27:24;;;;;;;21.58;10.38;;;;;;;13.61;100.00;100696.28;5087853;28;20043;-67
2023/08/11 04:29:50;;;;;;;19.00;9.32;;;;;;;13.64;100.00;100687.91;5088544;28;20032;-67
2023/08/11 04:32:15;;;;;;;19.90;10.07;;;;;;;13.67;100.00;100683.00;5089366;28;20050;-67
2023/08/11 04:34:40;;;;;;;19.60;10.57;;;;;;;13.72;100.00;100679.78;5089166;28;20067;-67
2023/08/11 04:37:06;;;;;;;18.05;10.02;;;;;;;13.70;100.00;100679.97;5088044;28;20131;-67
2023/08/11 04:39:36;;;;;;;20.50;9.98;;;;;;;13.65;100.00;100684.22;5087497;28;20048;-67
2023/08/11 04:42:04;;;;;;;19.42;10.30;;;;;;;13.63;100.00;100679.03;5087680;28;20037;-67
2023/08/11 04:44:29;;;;;;;21.95;11.75;;;;;;;13.68;100.00;100684.66;5087639;28;20046;-66
2023/08/11 04:46:55;;;;;;;20.15;9.70;;;;;;;13.67;100.00;100684.84;5087697;28;20040;-67
2023/08/11 04:49:21;;;;;;;15.40;8.98;;;;;;;13.67;100.00;100688.34;5087437;28;20043;-67
2023/08/11 04:51:48;;;;;;;16.75;8.75;;;;;;;13.72;100.00;100685.13;5087636;28;20083;-66
2023/08/11 04:54:13;;;;;;;17.50;9.25;;;;;;;13.73;100.00;100682.28;5088898;28;20068;-66
2023/08/11 04:56:39;;;;;;;17.33;8.85;;;;;;;13.77;100.00;100688.94;5088648;28;20056;-66
2023/08/11 04:59:04;;;;;;;18.08;9.20;;;;;;;13.81;100.00;100687.53;5087344;28;20036;-66
2023/08/11 05:01:30;;;;;;;21.92;12.57;;;;;;;13.87;100.00;100687.81;5088569;28;20048;-66
2023/08/11 05:03:55;;;;;;;16.10;9.57;;;;;;;13.92;100.00;100691.63;5088541;28;20082;-66
2023/08/11 05:06:21;;;;;;;24.48;10.07;;;;;;;13.94;100.00;100702.97;5088481;28;20070;-66
2023/08/11 05:08:47;;;;;;;23.77;10.77;;;;;;;13.99;100.00;100705.09;5088171;28;20560;-65
2023/08/11 05:11:13;;;;;;;27.70;11.52;;;;;;;13.99;100.00;100707.78;5088501;28;20032;-66
2023/08/11 05:13:38;;;;;;;23.98;10.52;;;;;;;14.07;100.00;100710.34;5088458;28;20047;-65
2023/08/11 05:16:03;;;;;;;18.75;10.02;;;;;;;14.09;100.00;100713.72;5074673;28;20115;-66
2023/08/11 05:18:29;;;;;;;21.23;9.13;;;;;;;14.16;100.00;100725.34;5067854;28;20044;-66
2023/08/11 05:20:55;;;;;;;18.77;10.45;;;;;;;14.23;100.00;100736.97;5067781;28;20076;-65
2023/08/11 05:23:20;;;;;;;17.65;8.90;;;;;;;14.31;100.00;100738.72;5066772;28;20048;-66
2023/08/11 05:25:46;;;;;;;20.42;10.88;;;;;;;14.38;100.00;100742.31;5067849;28;20449;-65
2023/08/11 05:28:11;;;;;;;17.75;9.13;;;;;;;14.44;100.00;100740.75;5067461;28;20047;-65
2023/08/11 05:30:37;;;;;;;22.73;10.05;;;;;;;14.54;100.00;100742.16;5067765;28;20029;-66
2023/08/11 05:33:03;;;;;;;17.70;8.57;;;;;;;14.62;100.00;100736.69;5059356;28;20505;-65
2023/08/11 05:35:29;;;;;;;16.45;8.63;;;;;;;14.67;100.00;100730.78;5054482;28;20044;-66
2023/08/11 05:37:55;;;;;;;13.93;7.32;;;;;;;14.73;100.00;100732.69;5054480;28;20041;-66
2023/08/11 05:40:20;;;;;;;15.13;7.57;;;;;;;14.80;100.00;100732.75;5054097;28;20450;-66
2023/08/11 05:42:45;;;;;;;13.27;7.38;;;;;;;14.86;100.00;100737.38;5054373;28;20564;-66
2023/08/11 05:45:11;;;;;;;16.33;8.50;;;;;;;14.93;100.00;100741.81;5054257;28;20040;-66
2023/08/11 05:47:37;;;;;;;14.38;7.70;;;;;;;14.99;100.00;100737.50;5054326;28;20126;-66
2023/08/11 05:50:03;;;;;;;13.35;7.68;;;;;;;15.07;100.00;100739.25;5053950;28;20044;-66
2023/08/11 05:52:28;;;;;;;13.70;8.20;;;;;;;15.13;100.00;100730.47;5054320;28;20021;-66
2023/08/11 05:54:54;;;;;;;13.82;7.40;;;;;;;15.23;100.00;100735.50;5054146;28;20120;-66
2023/08/11 05:57:19;;;;;;;15.20;7.22;;;;;;;15.34;100.00;100738.50;5054031;28;20036;-65
2023/08/11 05:59:44;;;;;;;15.68;7.57;;;;;;;15.40;100.00;100740.41;5054134;28;20528;-66
2023/08/11 06:02:10;;;;;;;12.10;7.38;;;;;;;15.47;100.00;100737.78;5053972;28;20127;-66
2023/08/11 06:04:36;;;;;;;11.40;6.95;;;;;;;15.54;100.00;100745.91;5053993;28;20047;-66
2023/08/11 06:07:01;;;;;;;10.57;7.20;;;;;;;15.58;100.00;100741.78;5053951;28;20048;-66
2023/08/11 06:09:27;;;;;;;21.85;7.50;;;;;;;15.60;100.00;100740.59;5053752;28;20037;-65
2023/08/11 06:11:52;;;;;;;14.63;7.25;;;;;;;15.67;100.00;100740.66;5053681;28;20061;-67
2023/08/11 06:14:17;;;;;;;15.75;7.57;;;;;;;15.72;100.00;100739.06;5053922;28;20048;-66
2023/08/11 06:16:43;;;;;;;12.43;7.50;;;;;;;15.82;100.00;100740.56;5053736;28;20033;-67
2023/08/11 06:19:08;;;;;;;11.88;7.57;;;;;;;15.93;100.00;100740.88;5053422;28;20120;-67
2023/08/11 06:21:35;;;;;;;15.18;7.75;;;;;;;16.04;100.00;100744.00;5053643;28;20037;-67
2023/08/11 06:24:00;;;;;;;12.13;7.30;;;;;;;16.14;100.00;100737.28;5053692;28;20036;-67
2023/08/11 06:26:26;;;;;;;14.13;7.90;;;;;;;16.24;100.00;100743.13;5053719;28;20063;-67
2023/08/11 06:28:51;;;;;;;13.85;8.48;;;;;;;16.29;100.00;100739.81;5053236;28;20037;-67
2023/08/11 06:31:20;;;;;;;14.73;7.78;;;;;;;16.33;100.00;100740.28;5053367;28;20132;-67
2023/08/11 06:33:46;;;;;;;14.05;7.40;;;;;;;16.39;100.00;100744.84;5053518;28;20158;-66
2023/08/11 06:36:11;;;;;;;13.15;7.05;;;;;;;16.46;100.00;100745.72;5053375;28;20036;-67
2023/08/11 06:38:37;;;;;;;16.63;7.88;;;;;;;16.51;100.00;100746.78;5053144;28;20036;-66
2023/08/11 06:41:03;;;;;;;13.20;7.30;;;;;;;16.58;100.00;100751.38;5053267;28;20041;-67
2023/08/11 06:43:29;;;;;;;14.68;8.10;;;;;;;16.61;100.00;100738.31;5052972;28;20120;-67
2023/08/11 06:45:55;;;;;;;13.27;6.55;;;;;;;16.69;100.00;100740.00;5052360;28;20051;-67
2023/08/11 06:48:21;;;;;;;12.30;6.72;;;;;;;16.75;100.00;100745.44;5053198;28;20029;-66
2023/08/11 06:50:46;;;;;;;15.52;7.45;;;;;;;16.81;100.00;100743.81;5053264;28;20045;-67
2023/08/11 06:53:11;;;;;;;11.43;6.72;;;;;;;16.94;100.00;100753.78;5055482;28;20060;-67
2023/08/11 06:55:37;;;;;;;12.35;6.82;;;;;;;16.99;100.00;100744.09;5062427;28;20035;-68
2023/08/11 06:58:02;;;;;;;12.43;6.28;;;;;;;17.05;100.00;100750.50;5060483;28;20490;-67
2023/08/11 07:00:28;;;;;;;15.65;7.32;;;;;;;17.12;100.00;100751.34;5062581;28;20091;-66
2023/08/11 07:02:53;;;;;;;11.43;6.57;;;;;;;17.22;100.00;100761.75;5061869;28;20037;-67
2023/08/11 07:05:18;;;;;;;11.35;6.15;;;;;;;17.30;100.00;100753.47;5062629;28;20035;-67
2023/08/11 07:07:44;;;;;;;11.27;5.90;;;;;;;17.36;100.00;100752.66;5062533;28;20106;-66
2023/08/11 07:10:10;;;;;;;9.38;6.38;;;;;;;17.46;100.00;100763.84;5062088;28;20036;-65
2023/08/11 07:12:36;;;;;;;16.38;6.57;;;;;;;17.63;100.00;100765.09;5061366;28;20112;-66
2023/08/11 07:15:03;;;;;;;11.43;6.13;;;;;;;17.79;100.00;100763.03;5063235;28;20112;-66
2023/08/11 07:17:28;;;;;;;14.70;8.30;;;;;;;17.90;100.00;100765.13;5060333;28;20032;-66
2023/08/11 07:19:54;;;;;;;11.40;6.88;;;;;;;18.07;99.81;100774.44;5062489;28;20408;-66
2023/08/11 07:22:19;;;;;;;10.93;6.68;;;;;;;18.18;97.82;100773.78;5061017;28;20055;-66
2023/08/11 07:24:44;;;;;;;11.15;6.10;;;;;;;18.30;98.51;100773.13;5067436;28;20383;-66
2023/08/11 07:27:10;;;;;;;11.02;6.22;;;;;;;18.41;98.57;100773.31;5060260;28;20442;-66
2023/08/11 07:29:35;;;;;;;10.02;6.03;;;;;;;18.47;98.52;100771.66;5062275;28;20060;-66
2023/08/11 07:32:03;;;;;;;17.63;8.13;;;;;;;18.54;99.91;100772.44;5060664;28;20039;-66
2023/08/11 07:34:29;;;;;;;10.73;5.55;;;;;;;18.61;99.32;100773.25;5062622;28;20032;-65
2023/08/11 07:36:54;;;;;;;12.48;6.55;;;;;;;18.64;100.00;100769.28;5061516;28;20453;-66
2023/08/11 07:39:19;;;;;;;14.15;6.72;;;;;;;18.77;100.00;100782.75;5060067;28;20094;-66
2023/08/11 07:41:45;;;;;;;11.63;6.13;;;;;;;18.88;98.46;100778.56;5061803;28;20037;-66
2023/08/11 07:44:10;;;;;;;8.05;5.32;;;;;;;18.91;97.81;100784.38;5062054;28;20407;-66
2023/08/11 07:46:36;;;;;;;9.85;6.80;;;;;;;18.97;97.67;100788.06;5060506;28;20524;-66
2023/08/11 07:49:01;;;;;;;12.50;5.90;;;;;;;19.02;98.12;100777.47;5062008;28;20028;-66
2023/08/11 07:51:26;;;;;;;10.00;6.80;;;;;;;19.11;97.65;100780.75;5059561;28;20041;-66
2023/08/11 07:53:52;;;;;;;8.82;5.80;;;;;;;19.16;98.66;100779.03;5062510;28;20082;-66
2023/08/11 07:56:18;;;;;;;15.63;6.30;;;;;;;19.22;98.79;100782.75;5060495;28;20115;-67
2023/08/11 07:58:43;;;;;;;8.77;5.78;;;;;;;19.38;96.26;100787.66;5060937;28;20828;-65
2023/08/11 08:01:08;;;;;;;10.88;6.47;;;;;;;19.54;92.71;100783.56;5060575;28;20063;-65
2023/08/11 08:03:35;;;;;;;9.35;6.05;;;;;;;19.75;94.47;100788.63;5053975;28;20067;-66
2023/08/11 08:06:04;;;;;;;11.68;6.15;;;;;;;20.00;92.83;100793.22;5063142;28;20507;-65
2023/08/11 08:08:31;;;;;;;13.80;7.03;;;;;;;19.96;93.21;100789.31;5059041;28;20050;-65
2023/08/11 08:10:56;;;;;;;10.17;6.53;;;;;;;20.02;93.96;100791.13;5060646;28;20048;-65
2023/08/11 08:13:22;;;;;;;9.07;5.97;;;;;;;19.99;92.58;100778.88;5052757;28;20033;-65
2023/08/11 08:15:47;;;;;;;8.95;6.22;;;;;;;20.09;93.29;100786.50;5054476;28;20115;-65
2023/08/11 08:18:13;;;;;;;11.05;5.85;;;;;;;20.13;92.10;100784.97;5051831;28;20404;-65
2023/08/11 08:20:38;;;;;;;13.38;6.82;;;;;;;20.21;92.18;100786.56;5053907;28;20044;-65
2023/08/11 08:23:03;;;;;;;8.50;6.38;;;;;;;20.37;91.10;100779.75;5052544;28;20040;-65
2023/08/11 08:25:29;;;;;;;8.70;5.90;;;;;;;20.53;87.05;100785.41;5053883;28;20040;-65
2023/08/11 08:27:55;;;;;;;10.05;6.15;;;;;;;20.68;85.50;100781.50;5051367;28;20120;-65
2023/08/11 08:30:21;;;;;;;9.43;5.30;;;;;;;20.86;85.51;100787.75;5052893;28;20483;-65
2023/08/11 08:32:46;;;;;;;8.18;5.40;;;;;;;21.02;84.65;100780.84;5052149;28;20037;-65
2023/08/11 08:35:11;;;;;;;11.93;5.97;;;;;;;21.20;81.70;100780.00;5053144;28;20043;-64
2023/08/11 08:37:37;;;;;;;6.50;5.35;;;;;;;21.42;84.32;100782.19;5052057;28;20041;-64
2023/08/11 08:40:04;;;;;;;10.85;5.97;;;;;;;21.50;83.73;100779.97;5052331;28;20039;-64
2023/08/11 08:42:30;;;;;;;8.70;6.23;;;;;;;21.57;83.24;100782.56;5052081;28;20029;-65
2023/08/11 08:44:56;;;;;;;7.78;5.82;;;;;;;21.65;80.08;100779.56;5069908;28;20066;-66
2023/08/11 08:47:24;;;;;;;9.93;5.97;;;;;;;21.74;82.45;100780.84;5071453;28;20064;-65
2023/08/11 08:49:50;;;;;;;7.03;5.45;;;;;;;21.75;81.78;100777.06;5071239;28;20047;-65
2023/08/11 08:52:16;;;;;;;10.95;5.47;;;;;;;21.84;79.85;100775.69;5071309;28;20090;-65
2023/08/11 08:54:43;;;;;;;10.30;5.50;;;;;;;22.00;81.67;100781.47;5071519;28;20094;-65
2023/08/11 08:57:09;;;;;;;10.60;5.63;;;;;;;22.30;79.62;100786.78;5060444;28;20033;-65
2023/08/11 08:59:37;;;;;;;9.40;6.07;;;;;;;22.33;80.30;100781.72;5051798;28;20041;-66
2023/08/11 09:02:03;;;;;;;11.38;5.78;;;;;;;22.47;78.21;100787.69;5052038;28;20090;-66
2023/08/11 09:04:30;;;;;;;7.22;4.80;;;;;;;22.64;75.89;100779.66;5051857;28;20056;-66
2023/08/11 09:06:56;;;;;;;12.30;5.68;;;;;;;22.82;77.51;100779.50;5051478;28;20440;-66
2023/08/11 09:09:23;;;;;;;6.80;4.97;;;;;;;22.87;77.42;100767.91;5055064;28;20094;-65
2023/08/11 09:11:49;;;;;;;6.65;5.18;;;;;;;22.98;73.87;100777.91;5056035;28;20036;-66
2023/08/11 09:14:16;;;;;;;8.35;5.07;;;;;;;23.07;76.21;100781.06;5056473;28;20040;-66
2023/08/11 09:16:42;;;;;;;7.05;5.15;;;;;;;23.21;76.27;100769.69;5055600;28;20040;-66
2023/08/11 09:19:10;;;;;;;6.55;4.97;;;;;;;23.31;72.60;100760.03;5076643;28;20429;-67
2023/08/11 09:21:36;;;;;;;9.48;4.80;;;;;;;23.48;73.34;100771.78;5074079;28;20123;-66
2023/08/11 09:24:02;;;;;;;8.18;5.38;;;;;;;23.72;71.10;100772.44;5075286;28;20083;-66
2023/08/11 09:26:27;;;;;;;6.82;4.90;;;;;;;23.95;71.20;100766.84;5075089;28;20089;-66
2023/08/11 09:28:54;;;;;;;10.00;4.70;;;;;;;24.01;68.15;100757.69;5075311;28;20066;-66
2023/08/11 09:31:21;;;;;;;6.95;4.45;;;;;;;24.25;67.33;100768.34;5075309;28;20072;-66
2023/08/11 09:33:47;;;;;;;7.80;5.25;;;;;;;24.36;65.75;100768.28;5075271;28;20055;-65
2023/08/11 09:36:13;;;;;;;5.97;4.28;;;;;;;24.49;62.73;100766.25;5075482;28;20507;-66
2023/08/11 09:38:41;;;;;;;7.68;4.95;;;;;;;24.62;61.50;100755.81;5074928;28;20491;-66
2023/08/11 09:41:08;;;;;;;7.13;4.72;;;;;;;25.00;64.04;100761.41;5074945;28;20103;-66
2023/08/11 09:43:35;;;;;;;6.43;4.63;;;;;;;25.22;64.81;100761.38;5074668;28;20094;-66
2023/08/11 09:46:00;;;;;;;8.38;4.30;;;;;;;25.36;61.37;100759.88;5074735;28;20025;-66
2023/08/11 09:48:26;;;;;;;8.80;5.07;;;;;;;25.78;60.77;100759.19;5074157;28;20039;-65
2023/08/11 09:50:52;;;;;;;7.55;4.63;;;;;;;26.04;57.51;100755.53;5074403;28;20491;-65
2023/08/11 09:53:19;;;;;;;7.10;4.28;;;;;;;26.05;55.40;100754.44;5074451;28;20044;-67
2023/08/11 09:55:48;;;;;;;7.55;4.38;;;;;;;26.40;56.11;100753.84;5074337;28;20036;-66
2023/08/11 09:58:14;;;;;;;7.28;5.00;;;;;;;26.55;57.28;100760.50;5074055;28;20402;-66
2023/08/11 10:00:40;;;;;;;6.70;4.45;;;;;;;26.91;56.98;100762.22;5074313;28;20032;-66
2023/08/11 10:03:10;;;;;;;7.25;4.85;;;;;;;27.09;55.68;100766.41;5074127;28;20518;-67
2023/08/11 10:05:42;;;;;;;5.50;4.10;;;;;;;27.31;54.27;100764.25;5074264;28;20056;-67
2023/08/11 10:08:17;;;;;;;6.07;4.10;;;;;;;27.74;52.85;100755.81;5073984;28;20044;-66
2023/08/11 10:10:43;;;;;;;6.25;4.07;;;;;;;27.94;51.83;100754.97;5074133;28;20123;-67
2023/08/11 10:13:15;;;;;;;6.50;3.80;;;;;;;28.11;48.96;100758.22;5074101;28;20105;-67
2023/08/11 10:15:41;;;;;;;9.48;5.10;;;;;;;28.13;49.30;100750.56;5073684;28;20040;-67
2023/08/11 10:18:07;;;;;;;4.25;3.45;;;;;;;28.41;48.77;100748.28;5072366;28;20495;-66
2023/08/11 10:20:33;;;;;;;5.57;3.75;;;;;;;28.47;46.82;100756.22;5073768;28;20032;-67
2023/08/11 10:22:59;;;;;;;5.55;4.00;;;;;;;28.78;48.11;100748.69;5073787;28;20124;-67
2023/08/11 10:25:25;;;;;;;7.50;4.27;;;;;;;29.03;47.89;100746.94;5073770;28;20094;-67
2023/08/11 10:27:51;;;;;;;5.10;3.90;;;;;;;29.44;46.91;100751.00;5073748;28;20066;-67
2023/08/11 10:30:18;;;;;;;7.90;4.28;;;;;;;29.79;47.25;100751.81;5073603;28;20040;-67
2023/08/11 10:32:43;;;;;;;6.50;3.55;;;;;;;29.81;45.25;100749.63;5074067;28;20499;-67
2023/08/11 10:35:19;;;;;;;7.50;4.07;;;;;;;30.32;45.62;100743.63;5073802;28;20051;-67
2023/08/11 10:37:56;;;;;;;6.20;3.73;;;;;;;30.38;44.66;100741.59;5073649;28;20048;-67
2023/08/11 10:40:21;;;;;;;3.78;3.33;;;;;;;30.84;44.47;100749.28;5073550;28;20037;-68
2023/08/11 10:42:50;;;;;;;5.15;3.80;;;;;;;31.10;43.84;100745.03;5073443;28;20090;-67
2023/08/11 10:45:18;;;;;;;7.05;3.70;;;;;;;31.29;42.92;100736.81;5073389;28;20053;-68
2023/08/11 10:47:52;;;;;;;4.10;3.08;;;;;;;31.26;42.34;100735.47;5073294;28;20040;-67
2023/08/11 10:50:18;;;;;;;5.72;3.90;;;;;;;31.37;40.61;100738.88;5072989;28;20035;-67
2023/08/11 10:52:46;;;;;;;4.37;3.80;;;;;;;31.44;40.47;100724.75;5073222;28;20480;-67
2023/08/11 10:55:14;;;;;;;5.22;3.80;;;;;;;31.18;43.12;100725.13;5073053;28;20045;-68
2023/08/11 10:57:39;;;;;;;3.63;3.20;;;;;;;31.29;42.50;100726.59;5073170;28;20040;-67
2023/08/11 11:00:06;;;;;;;4.00;3.27;;;;;;;31.54;42.29;100719.84;5072773;28;20041;-68
2023/08/11 11:02:33;;;;;;;5.85;3.30;;;;;;;31.74;40.91;100715.94;5073059;28;20040;-66
2023/08/11 11:05:00;;;;;;;5.80;3.38;;;;;;;32.17;40.40;100712.13;5073123;28;20119;-66
2023/08/11 11:07:25;;;;;;;4.65;3.50;;;;;;;32.30;40.01;100703.84;5072944;28;20070;-66
2023/08/11 11:09:51;;;;;;;5.53;3.00;;;;;;;32.45;40.35;100710.19;5072651;28;20036;-66
2023/08/11 11:12:17;;;;;;;3.92;3.35;;;;;;;32.76;38.99;100704.81;5072654;28;20075;-66
2023/08/11 11:14:43;;;;;;;4.03;3.13;;;;;;;33.37;36.99;100700.59;5072978;28;20121;-66
2023/08/11 11:17:08;;;;;;;4.17;2.83;;;;;;;33.51;37.23;100701.38;5072868;28;20040;-66
2023/08/11 11:19:35;;;;;;;3.47;3.00;;;;;;;33.65;37.61;100693.03;5072519;28;20036;-66
2023/08/11 11:22:01;;;;;;;;;;;;;;;33.75;36.75;100696.31;5073003;28;20040;-66
2023/08/11 11:24:26;;;;;;;7.15;3.08;;;;;;;34.00;37.84;100703.09;5072491;28;19942;-67
2023/08/11 11:26:52;;;;;;;4.77;3.13;;;;;;;34.16;37.10;100702.66;5072529;28;20554;-67
2023/08/11 11:29:23;;;;;;;5.40;3.67;;;;;;;34.20;36.06;100687.88;5072210;28;20036;-66
2023/08/11 11:31:49;;;;;;;2.80;2.40;;;;;;;34.61;35.91;100702.47;5072314;28;20037;-66
2023/08/11 11:34:16;;;;;;;5.38;2.70;;;;;;;34.84;34.57;100701.19;5072691;28;20052;-65
2023/08/11 11:36:41;;;;;;;3.20;2.75;;;;;;;34.83;34.72;100698.75;5072523;28;20040;-66
2023/08/11 11:39:08;;;;;;;4.77;3.27;;;;;;;34.97;34.88;100689.19;5072153;28;20105;-66
2023/08/11 11:41:34;;;;;;;4.15;2.63;;;;;;;35.09;34.77;100696.81;5072472;28;20082;-67
2023/08/11 11:43:59;;;;;;;3.63;2.90;;;;;;;35.53;34.36;100695.59;5072363;28;20483;-67
2023/08/11 11:46:25;;;;;;;4.23;2.70;;;;;;;35.48;33.49;100697.75;5071052;28;20032;-66
2023/08/11 11:48:54;;;;;;;3.95;2.78;;;;;;;35.59;34.65;100693.47;5071971;28;20105;-67
2023/08/11 11:51:24;;;;;;;5.40;2.90;;;;;;;35.73;34.48;100685.75;5072067;28;20039;-66
2023/08/11 11:53:51;;;;;;;3.60;2.70;;;;;;;36.20;33.66;100680.22;5072436;28;20059;-66
2023/08/11 11:56:18;;;;;;;3.65;2.45;;;;;;;36.17;35.03;100675.31;5072099;28;20025;-67
2023/08/11 11:58:45;;;;;;;5.28;2.60;;;;;;;35.17;35.02;100675.81;5071925;28;20052;-66
2023/08/11 12:01:18;;;;;;;4.00;2.97;;;;;;;34.65;34.99;100676.59;5072011;28;20036;-66
2023/08/11 12:03:50;;;;;;;2.83;2.40;;;;;;;34.52;35.61;100678.38;5072061;28;20033;-66
2023/08/11 12:06:20;;;;;;;3.00;2.53;;;;;;;33.80;35.68;100675.22;5071886;28;20040;-66
2023/08/11 12:08:49;;;;;;;5.60;3.17;;;;;;;34.74;35.91;100685.72;5071680;28;20128;-66
2023/08/11 12:11:17;;;;;;;4.35;2.72;;;;;;;34.65;35.96;100684.09;5071842;28;20029;-65
2023/08/11 12:13:43;;;;;;;3.10;2.60;;;;;;;35.32;35.92;100689.13;5071935;28;20041;-66
2023/08/11 12:16:10;;;;;;;;;;;;;;;35.87;34.11;100683.59;5072326;28;20109;-66
2023/08/11 12:18:35;;;;;;;;;;;;;;;36.14;32.93;100689.88;5072152;28;19923;-67
2023/08/11 12:21:02;;;;;;;3.30;2.42;;;;;;;36.13;32.98;100685.47;5071737;28;19916;-66
2023/08/11 12:23:27;;;;;;;3.08;2.60;;;;;;;36.54;32.85;100683.94;5072023;28;20043;-67
2023/08/11 12:25:56;;;;;;;2.83;2.33;;;;;;;36.99;32.66;100683.25;5071723;28;20024;-66
2023/08/11 12:28:21;;;;;;;3.85;2.60;;;;;;;36.59;33.70;100692.06;5071561;28;20414;-67
2023/08/11 12:30:48;;;;;;;3.73;2.70;;;;;;;36.70;33.58;100687.69;5071840;28;20123;-67
2023/08/11 12:33:15;;;;;;;3.72;2.58;;;;;;;36.34;32.61;100677.19;5070762;28;20032;-66
2023/08/11 12:35:41;;;;;;;3.47;2.70;;;;;;;36.75;32.71;100675.59;5071720;28;20079;-66
2023/08/11 12:38:12;;;;;;;2.83;2.55;;;;;;;36.62;32.75;100675.53;5071647;28;20131;-66
2023/08/11 12:40:38;;;;;;;2.22;2.03;;;;;;;37.03;31.70;100675.84;5071748;28;20040;-66
2023/08/11 12:43:03;;;;;;;4.45;2.42;;;;;;;37.34;31.98;100676.22;5073606;28;20098;-66
2023/08/11 12:45:28;;;;;;;2.93;2.30;;;;;;;36.95;32.89;100660.91;5069886;28;20120;-67
2023/08/11 12:47:54;;;;;;;3.70;2.10;;;;;;;35.29;32.74;100668.44;5066142;28;20052;-66
2023/08/11 12:50:21;;;;;;;3.13;2.50;;;;;;;35.88;32.53;100665.03;5069327;28;20044;-66
2023/08/11 12:52:47;;;;;;;2.47;2.28;;;;;;;36.31;32.26;100670.31;5075869;28;20040;-66
2023/08/11 12:55:13;;;;;;;2.23;2.03;;;;;;;37.01;31.82;100669.84;5075386;28;20036;-66
2023/08/11 12:57:38;;;;;;;3.78;2.08;;;;;;;36.96;31.04;100665.31;5075504;28;20085;-67
2023/08/11 13:00:05;;;;;;;5.87;2.60;;;;;;;37.14;29.99;100664.00;5075193;28;20044;-66
2023/08/11 13:02:31;;;;;;;4.28;2.28;;;;;;;37.26;31.20;100665.19;5075239;28;20047;-66
2023/08/11 13:04:56;;;;;;;4.53;2.58;;;;;;;37.03;31.53;100661.97;5075551;28;20041;-67
2023/08/11 13:07:22;;;;;;;3.87;2.80;;;;;;;37.05;31.36;100668.03;5075187;28;20075;-66
2023/08/11 13:09:47;;;;;;;3.33;2.00;;;;;;;36.39;31.52;100654.84;5074922;28;20033;-66
2023/08/11 13:12:12;;;;;;;3.67;2.10;;;;;;;36.80;31.27;100662.34;5075164;28;20040;-66
2023/08/11 13:14:41;;;;;;;2.43;2.17;;;;;;;36.65;30.90;100668.50;5075353;28;20055;-67
2023/08/11 13:17:07;;;;;;;2.70;2.10;;;;;;;36.83;30.26;100652.50;5075116;28;20068;-66
2023/08/11 13:19:33;;;;;;;2.95;2.30;;;;;;;36.07;32.70;100664.63;5073337;28;20079;-67
2023/08/11 13:22:04;;;;;;;3.03;2.00;;;;;;;36.14;31.55;100656.59;5074912;28;20234;-66
2023/08/11 13:24:33;;;;;;;2.67;2.20;;;;;;;36.77;30.79;100649.13;5074777;28;20044;-66
2023/08/11 13:26:59;;;;;;;2.58;2.28;;;;;;;36.24;31.30;100647.88;5074729;28;20044;-66
2023/08/11 13:29:25;;;;;;;2.25;1.85;;;;;;;36.38;31.35;100645.69;5073310;28;20047;-67
2023/08/11 13:31:51;;;;;;;3.97;2.20;;;;;;;36.83;30.95;100638.63;5075078;28;20036;-66
2023/08/11 13:34:16;;;;;;;2.80;2.50;;;;;;;36.99;29.91;100644.41;5075288;28;20293;-66
2023/08/11 13:36:41;;;;;;;2.40;2.10;;;;;;;37.16;30.60;100644.22;5075030;28;20486;-66
2023/08/11 13:39:08;;;;;;;2.60;1.97;;;;;;;36.40;32.54;100645.38;5074680;28;20041;-66
2023/08/11 13:41:34;;;;;;;3.75;2.30;;;;;;;35.70;31.94;100638.53;5074529;28;20043;-67
2023/08/11 13:44:00;;;;;;;3.72;1.95;;;;;;;35.00;32.05;100643.41;5074661;28;20416;-67
2023/08/11 13:46:25;;;;;;;2.80;2.00;;;;;;;34.60;33.82;100634.47;5074513;28;20037;-67
2023/08/11 13:48:51;;;;;;;3.93;2.30;;;;;;;33.98;34.47;100641.03;5074217;28;20037;-67
2023/08/11 13:51:16;;;;;;;3.00;2.63;;;;;;;33.89;35.49;100629.09;5074484;28;20079;-67
2023/08/11 13:53:42;;;;;;;2.70;2.07;;;;;;;33.55;34.84;100627.81;5073822;28;20067;-67
2023/08/11 13:56:08;;;;;;;2.70;2.30;;;;;;;32.80;35.81;100620.31;5074303;28;20495;-66
2023/08/11 13:58:35;;;;;;;2.67;1.98;;;;;;;32.25;37.51;100623.22;5073938;28;20045;-66
2023/08/11 14:01:01;;;;;;;;;;;;;;;32.00;38.40;100614.38;5074690;28;20060;-67
2023/08/11 14:03:27;;;;;;;3.30;2.50;;;;;;;31.82;37.61;100618.03;5074243;28;19971;-67
2023/08/11 14:05:53;;;;;;;3.33;2.00;;;;;;;31.84;38.49;100615.81;5074142;28;20064;-67
2023/08/11 14:08:19;;;;;;;3.70;2.60;;;;;;;31.79;38.54;100619.50;5073716;28;20044;-67
2023/08/11 14:10:48;;;;;;;3.67;2.40;;;;;;;31.58;38.81;100612.72;5073956;28;20044;-67
2023/08/11 14:13:14;;;;;;;2.97;2.20;;;;;;;31.59;41.67;100617.91;5074017;28;20040;-67
2023/08/11 14:15:40;;;;;;;3.75;2.20;;;;;;;31.50;39.09;100611.50;5072830;28;20035;-67
2023/08/11 14:18:06;;;;;;;5.10;2.23;;;;;;;31.34;38.08;100605.44;5073900;28;20040;-67
2023/08/11 14:20:32;;;;;;;2.90;2.10;;;;;;;31.44;39.30;100598.16;5073630;28;20123;-67
2023/08/11 14:22:57;;;;;;;3.03;2.17;;;;;;;31.45;39.93;100605.28;5074092;28;20376;-67
2023/08/11 14:25:23;;;;;;;4.03;2.13;;;;;;;31.29;39.80;100597.28;5073997;28;20043;-67
2023/08/11 14:27:48;;;;;;;2.90;2.33;;;;;;;31.41;40.71;100591.28;5074084;28;20129;-67
2023/08/11 14:30:13;;;;;;;3.08;2.40;;;;;;;31.56;41.00;100585.50;5073806;28;20040;-67
2023/08/11 14:32:39;;;;;;;2.83;1.90;;;;;;;31.32;40.27;100584.88;5074328;28;20055;-67
2023/08/11 14:35:05;;;;;;;3.77;2.40;;;;;;;31.20;38.84;100584.50;5073835;28;20037;-65
2023/08/11 14:37:30;;;;;;;3.30;2.50;;;;;;;31.10;39.54;100581.94;5073513;28;20036;-65
2023/08/11 14:39:56;;;;;;;3.77;2.20;;;;;;;31.08;41.18;100576.72;5073455;28;20471;-66
2023/08/11 14:42:22;;;;;;;3.10;2.25;;;;;;;31.00;39.18;100570.00;5073738;28;20442;-66
2023/08/11 14:44:47;;;;;;;3.10;1.80;;;;;;;31.01;39.30;100579.06;5073792;28;20028;-66
2023/08/11 14:47:13;;;;;;;5.07;2.40;;;;;;;31.09;41.15;100575.63;5073324;28;20044;-66
2023/08/11 14:49:39;;;;;;;3.07;2.30;;;;;;;31.11;40.50;100572.59;5073312;28;20059;-66
2023/08/11 14:52:05;;;;;;;3.13;1.85;;;;;;;31.03;40.61;100572.13;5073535;28;20086;-65
2023/08/11 14:54:31;;;;;;;2.63;2.17;;;;;;;30.99;40.51;100573.88;5073316;28;20032;-66
2023/08/11 14:56:57;;;;;;;2.83;2.13;;;;;;;31.01;41.11;100579.06;5073382;28;20032;-66
2023/08/11 14:59:22;;;;;;;2.37;2.03;;;;;;;30.89;38.93;100573.22;5072837;28;20033;-66
2023/08/11 15:01:48;;;;;;;3.05;2.10;;;;;;;30.89;40.21;100576.78;5073287;28;20797;-66
2023/08/11 15:04:13;;;;;;;3.30;3.00;;;;;;;30.93;41.41;100566.81;5073341;28;20040;-66
2023/08/11 15:06:39;;;;;;;2.90;2.25;;;;;;;30.77;39.76;100558.00;5072191;28;20090;-66
2023/08/11 15:09:04;;;;;;;2.30;1.80;;;;;;;30.83;40.17;100561.50;5072854;28;20076;-65
2023/08/11 15:11:30;;;;;;;3.50;2.60;;;;;;;30.85;39.59;100556.53;5072937;28;20037;-65
2023/08/11 15:13:55;;;;;;;2.60;2.40;;;;;;;30.88;41.69;100555.09;5073227;28;20048;-66
2023/08/11 15:16:21;;;;;;;2.92;2.20;;;;;;;30.79;39.39;100552.22;5073077;28;20071;-67
2023/08/11 15:18:46;;;;;;;3.20;2.70;;;;;;;30.82;40.33;100551.63;5072749;28;20100;-67
2023/08/11 15:21:12;;;;;;;2.20;1.80;;;;;;;30.73;40.35;100550.69;5072817;28;20025;-67
2023/08/11 15:23:38;;;;;;;2.37;2.10;;;;;;;30.64;40.17;100552.44;5072947;28;20044;-67
2023/08/11 15:26:04;;;;;;;3.55;2.22;;;;;;;30.59;40.68;100556.09;5072717;28;20115;-67
2023/08/11 15:28:30;;;;;;;3.08;1.98;;;;;;;30.58;41.08;100559.94;5072972;28;20090;-67
2023/08/11 15:30:56;;;;;;;3.92;2.20;;;;;;;30.50;41.36;100558.69;5073072;28;20041;-67
2023/08/11 15:33:21;;;;;;;3.42;2.58;;;;;;;30.54;40.73;100551.50;5073392;28;20403;-67
2023/08/11 15:35:47;;;;;;;3.17;2.22;;;;;;;30.45;40.66;100560.69;5072833;28;20040;-67
2023/08/11 15:38:12;;;;;;;2.28;1.80;;;;;;;30.38;39.91;100552.81;5072403;28;20143;-67